Time;durP1;ratioP1;P1;durP2;ratioP2;P2;SDS_P1;SDS_P2;PMS_P1;PMS_P2;Temp;Humidity;BMP_temperature;BMP_pressure;BME280_temperature;BME280_humidity;BME280_pressure;Samples;Min_cycle;Max_cycle;Signal;HPM_P1;HPM_P2
2024/02/18 00:01:17;;;;;;;;;;;;;;;-4.72;100.00;101519.77;109270;1252;67039;-55
2024/02/18 00:03:44;;;;;;;;;;;;;;;-4.81;100.00;101516.86;109288;1252;71851;-54
2024/02/18 00:06:12;;;;;;;;;;;;;;;-4.91;100.00;101514.83;109219;1253;59777;-56
2024/02/18 00:08:39;;;;;;;;;;;;;;;-5.01;100.00;101514.02;109207;1252;60029;-55
2024/02/18 00:11:07;;;;;;;;;;;;;;;-5.12;100.00;101512.33;109289;1253;75456;-54
2024/02/18 00:13:36;;;;;;;;;;;;;;;-5.22;100.00;101509.45;109246;1252;66094;-54
2024/02/18 00:16:04;;;;;;;;;;;;;;;-5.31;100.00;101513.48;109288;1253;72456;-54
2024/02/18 00:18:32;;;;;;;;;;;;;;;-5.39;100.00;101512.05;109278;1253;60956;-54
2024/02/18 00:20:59;;;;;;;;;;;;;;;-5.47;100.00;101510.77;109252;1252;60374;-54
2024/02/18 00:23:27;;;;;;;;;;;;;;;-5.54;100.00;101510.51;109268;1253;74286;-55
2024/02/18 00:25:55;;;;;;;;;;;;;;;-5.60;100.00;101510.88;109289;1253;66918;-54
2024/02/18 00:28:22;;;;;;;;;;;;;;;-5.66;100.00;101509.70;109180;1256;71422;-55
2024/02/18 00:30:50;;;;;;;;;;;;;;;-5.71;100.00;101513.91;109329;1253;60058;-56
2024/02/18 00:33:19;;;;;;;;;;;;;;;-5.73;100.00;101515.15;109169;1253;60002;-54
2024/02/18 00:35:47;;;;;;;;;;;;;;;-5.71;100.00;101512.07;109197;1253;74534;-55
2024/02/18 00:38:14;;;;;;;;;;;;;;;-5.67;100.00;101503.95;109219;1253;66106;-54
2024/02/18 00:40:41;;;;;;;;;;;;;;;-5.59;100.00;101503.02;109152;1253;72640;-55
2024/02/18 00:43:09;;;;;;;;;;;;;;;-5.49;100.00;101500.16;109170;1253;59710;-55
2024/02/18 00:45:37;;;;;;;;;;;;;;;-5.38;100.00;101491.36;109214;1253;59828;-55
2024/02/18 00:48:04;;;;;;;;;;;;;;;-5.26;100.00;101491.29;109191;1253;75558;-54
2024/02/18 00:50:32;;;;;;;;;;;;;;;-5.14;100.00;101488.32;109206;1253;65619;-58
2024/02/18 00:52:59;;;;;;;;;;;;;;;-5.02;100.00;101482.84;109193;1253;70507;-54
2024/02/18 00:55:27;;;;;;;;;;;;;;;-4.90;100.00;101482.95;109404;1253;59680;-54
2024/02/18 00:57:55;;;;;;;;;;;;;;;-4.80;100.00;101484.10;109205;1253;59706;-54
2024/02/18 01:00:22;;;;;;;;;;;;;;;-4.70;100.00;101479.50;109218;1252;74643;-54
2024/02/18 01:02:50;;;;;;;;;;;;;;;-4.61;100.00;101478.48;109177;1253;64909;-60
2024/02/18 01:05:17;;;;;;;;;;;;;;;-4.52;100.00;101475.61;109232;1253;70895;-54
2024/02/18 01:07:45;;;;;;;;;;;;;;;-4.43;100.00;101476.48;109161;1253;60222;-54
2024/02/18 01:10:12;;;;;;;;;;;;;;;-4.34;100.00;101476.64;109240;1252;59927;-57
2024/02/18 01:12:40;;;;;;;;;;;;;;;-4.27;100.00;101476.04;109212;1253;75429;-55
2024/02/18 01:15:08;;;;;;;;;;;;;;;-4.20;100.00;101470.37;109144;1253;67101;-55
2024/02/18 01:17:35;;;;;;;;;;;;;;;-4.15;100.00;101469.32;109427;1253;72783;-54
2024/02/18 01:20:04;;;;;;;;;;;;;;;-4.10;100.00;101463.86;109197;1253;60160;-55
2024/02/18 01:22:31;;;;;;;;;;;;;;;-4.05;100.00;101462.48;109175;1253;60069;-54
2024/02/18 01:24:59;;;;;;;;;;;;;;;-4.02;100.00;101465.75;109170;1253;75499;-55
2024/02/18 01:27:27;;;;;;;;;;;;;;;-3.99;100.00;101456.98;109176;1253;65660;-54
2024/02/18 01:29:54;;;;;;;;;;;;;;;-3.95;100.00;101457.48;109176;1253;72449;-54
2024/02/18 01:32:22;;;;;;;;;;;;;;;-3.91;100.00;101458.68;109197;1252;59741;-54
2024/02/18 01:34:51;;;;;;;;;;;;;;;-3.87;100.00;101460.23;109236;1253;59862;-54
2024/02/18 01:37:18;;;;;;;;;;;;;;;-3.82;100.00;101461.07;109125;1258;75509;-58
2024/02/18 01:39:46;;;;;;;;;;;;;;;-3.80;100.00;101460.13;109215;1253;66936;-55
2024/02/18 01:42:13;;;;;;;;;;;;;;;-3.77;100.00;101460.34;109173;1255;72719;-55
2024/02/18 01:44:41;;;;;;;;;;;;;;;-3.72;100.00;101462.00;109198;1253;61768;-55
2024/02/18 01:47:08;;;;;;;;;;;;;;;-3.68;100.00;101462.70;109170;1254;59708;-54
2024/02/18 01:49:36;;;;;;;;;;;;;;;-3.64;100.00;101460.67;109173;1252;74180;-57
2024/02/18 01:52:03;;;;;;;;;;;;;;;-3.58;100.00;101459.27;109257;1253;66927;-55
2024/02/18 01:54:33;;;;;;;;;;;;;;;-3.53;100.00;101457.86;109174;1253;72661;-53
2024/02/18 01:57:06;;;;;;;;;;;;;;;-3.49;100.00;101455.46;109209;1253;59813;-52
2024/02/18 01:59:33;;;;;;;;;;;;;;;-3.45;100.00;101454.48;109210;1253;59904;-55
2024/02/18 02:02:01;;;;;;;;;;;;;;;-3.41;100.00;101456.52;109092;1254;76753;-53
2024/02/18 02:04:29;;;;;;;;;;;;;;;-3.38;100.00;101451.95;109211;1253;65794;-52
2024/02/18 02:06:57;;;;;;;;;;;;;;;-3.36;100.00;101448.13;109177;1253;71423;-56
2024/02/18 02:09:25;;;;;;;;;;;;;;;-3.33;100.00;101445.96;109230;1253;60397;-56
2024/02/18 02:11:52;;;;;;;;;;;;;;;-3.29;100.00;101445.45;109092;1256;59842;-55
2024/02/18 02:14:21;;;;;;;;;;;;;;;-3.25;100.00;101440.55;109225;1253;75571;-55
2024/02/18 02:16:48;;;;;;;;;;;;;;;-3.21;100.00;101440.19;109186;1253;65197;-55
2024/02/18 02:19:15;;;;;;;;;;;;;;;-3.17;100.00;101438.16;109213;1253;72720;-52
2024/02/18 02:21:43;;;;;;;;;;;;;;;-3.15;100.00;101440.44;109186;1254;59850;-57
2024/02/18 02:24:11;;;;;;;;;;;;;;;-3.13;100.00;101438.16;109410;1253;59842;-53
2024/02/18 02:26:39;;;;;;;;;;;;;;;-3.11;100.00;101436.52;109185;1253;75632;-52
2024/02/18 02:29:06;;;;;;;;;;;;;;;-3.07;100.00;101433.47;109180;1253;66206;-52
2024/02/18 02:31:34;;;;;;;;;;;;;;;-3.03;100.00;101430.41;109177;1253;72642;-52
2024/02/18 02:34:01;;;;;;;;;;;;;;;-3.00;100.00;101433.48;109150;1253;60115;-53
2024/02/18 02:36:29;;;;;;;;;;;;;;;-2.98;100.00;101436.33;109184;1253;60218;-52
2024/02/18 02:38:57;;;;;;;;;;;;;;;-2.99;100.00;101437.55;109197;1252;75549;-52
2024/02/18 02:41:26;;;;;;;;;;;;;;;-2.98;100.00;101439.20;109166;1253;66939;-52
2024/02/18 02:43:54;;;;;;;;;;;;;;;-2.97;100.00;101434.35;109103;1253;72414;-58
2024/02/18 02:46:21;;;;;;;;;;;;;;;-2.94;100.00;101437.85;109155;1253;60095;-53
2024/02/18 02:48:49;;;;;;;;;;;;;;;-2.92;100.00;101434.68;109190;1253;59709;-53
2024/02/18 02:51:16;;;;;;;;;;;;;;;-2.90;100.00;101431.73;109173;1256;75499;-52
2024/02/18 02:53:44;;;;;;;;;;;;;;;-2.89;100.00;101429.61;109181;1253;65644;-52
2024/02/18 02:56:11;;;;;;;;;;;;;;;-2.88;100.00;101425.83;109132;1256;72709;-57
2024/02/18 02:58:39;;;;;;;;;;;;;;;-2.85;100.00;101427.08;109179;1253;59795;-54
2024/02/18 03:01:06;;;;;;;;;;;;;;;-2.83;100.00;101433.77;109210;1253;59896;-52
2024/02/18 03:03:34;;;;;;;;;;;;;;;-2.77;100.00;101430.95;109172;1253;73869;-53
2024/02/18 03:06:02;;;;;;;;;;;;;;;-2.75;100.00;101431.88;109191;1253;66961;-59
2024/02/18 03:08:29;;;;;;;;;;;;;;;-2.73;100.00;101432.81;109181;1253;72298;-54
2024/02/18 03:10:57;;;;;;;;;;;;;;;-2.71;100.00;101438.33;109190;1253;61418;-54
2024/02/18 03:13:24;;;;;;;;;;;;;;;-2.67;100.00;101438.03;109198;1253;59687;-53
2024/02/18 03:15:52;;;;;;;;;;;;;;;-2.66;100.00;101433.35;109212;1253;74515;-52
2024/02/18 03:18:19;;;;;;;;;;;;;;;-2.63;100.00;101431.71;109176;1253;67492;-54
2024/02/18 03:20:47;;;;;;;;;;;;;;;-2.61;100.00;101431.42;109173;1257;72736;-52
2024/02/18 03:23:15;;;;;;;;;;;;;;;-2.60;100.00;101439.07;109387;1253;60172;-52
2024/02/18 03:25:43;;;;;;;;;;;;;;;-2.58;100.00;101440.48;109416;1253;59700;-53
2024/02/18 03:28:11;;;;;;;;;;;;;;;-2.56;100.00;101444.30;109167;1252;75481;-53
2024/02/18 03:30:39;;;;;;;;;;;;;;;-2.56;100.00;101446.52;109241;1253;66210;-52
2024/02/18 03:33:06;;;;;;;;;;;;;;;-2.55;100.00;101440.66;109407;1257;72717;-52
2024/02/18 03:35:34;;;;;;;;;;;;;;;-2.54;100.00;101443.34;109206;1253;59742;-53
2024/02/18 03:38:01;;;;;;;;;;;;;;;-2.52;100.00;101447.21;109226;1254;60089;-53
2024/02/18 03:40:29;;;;;;;;;;;;;;;-2.50;100.00;101443.17;109192;1253;76036;-54
2024/02/18 03:42:56;;;;;;;;;;;;;;;-2.50;100.00;101439.59;109263;1258;65648;-53
2024/02/18 03:45:24;;;;;;;;;;;;;;;-2.49;100.00;101437.35;109211;1253;72719;-52
2024/02/18 03:47:52;;;;;;;;;;;;;;;-2.49;100.00;101436.86;109209;1256;59782;-53
2024/02/18 03:50:19;;;;;;;;;;;;;;;-2.51;100.00;101437.25;109210;1254;60261;-52
2024/02/18 03:52:47;;;;;;;;;;;;;;;-2.50;100.00;101433.83;109355;1253;74526;-53
2024/02/18 03:55:14;;;;;;;;;;;;;;;-2.48;100.00;101440.20;109243;1256;65530;-53
2024/02/18 03:57:42;;;;;;;;;;;;;;;-2.50;100.00;101443.50;109253;1253;72742;-52
2024/02/18 04:00:10;;;;;;;;;;;;;;;-2.50;100.00;101445.05;109203;1253;61413;-53
2024/02/18 04:02:38;;;;;;;;;;;;;;;-2.50;100.00;101448.96;109184;1253;60372;-53
2024/02/18 04:05:06;;;;;;;;;;;;;;;-2.50;100.00;101449.64;109207;1253;75587;-53
2024/02/18 04:07:34;;;;;;;;;;;;;;;-2.51;100.00;101445.79;109195;1253;65059;-53
2024/02/18 04:10:02;;;;;;;;;;;;;;;-2.50;100.00;101449.31;109193;1254;72729;-53
2024/02/18 04:12:30;;;;;;;;;;;;;;;-2.49;100.00;101443.98;109152;1253;60061;-58
2024/02/18 04:14:57;;;;;;;;;;;;;;;-2.47;100.00;101438.28;109182;1258;60286;-53
2024/02/18 04:17:25;;;;;;;;;;;;;;;-2.47;100.00;101432.65;109222;1253;75466;-54
2024/02/18 04:19:53;;;;;;;;;;;;;;;-2.48;100.00;101432.70;109206;1254;67289;-53
2024/02/18 04:22:20;;;;;;;;;;;;;;;-2.48;100.00;101427.61;109171;1254;72779;-54
2024/02/18 04:24:48;;;;;;;;;;;;;;;-2.51;100.00;101424.00;109162;1253;60199;-54
2024/02/18 04:27:15;;;;;;;;;;;;;;;-2.54;100.00;101425.66;109182;1254;60463;-54
2024/02/18 04:29:43;;;;;;;;;;;;;;;-2.54;100.00;101426.50;109215;1253;74241;-54
2024/02/18 04:32:11;;;;;;;;;;;;;;;-2.52;100.00;101431.02;109225;1253;65908;-54
2024/02/18 04:34:38;;;;;;;;;;;;;;;-2.52;100.00;101432.02;109134;1254;72769;-58
2024/02/18 04:37:06;;;;;;;;;;;;;;;-2.55;100.00;101421.95;109206;1254;60958;-53
2024/02/18 04:39:34;;;;;;;;;;;;;;;-2.54;100.00;101423.63;109257;1254;60110;-54
2024/02/18 04:42:03;;;;;;;;;;;;;;;-2.53;100.00;101423.58;109249;1254;75466;-54
2024/02/18 04:44:30;;;;;;;;;;;;;;;-2.51;100.00;101419.93;109215;1252;67098;-59
2024/02/18 04:46:57;;;;;;;;;;;;;;;-2.52;100.00;101419.10;109427;1254;75121;-54
2024/02/18 04:49:25;;;;;;;;;;;;;;;-2.51;100.00;101416.17;109416;1254;60330;-54
2024/02/18 04:51:53;;;;;;;;;;;;;;;-2.49;100.00;101412.32;109231;1252;59963;-54
2024/02/18 04:54:20;;;;;;;;;;;;;;;-2.48;100.00;101419.95;109217;1253;73258;-58
2024/02/18 04:56:48;;;;;;;;;;;;;;;-2.47;100.00;101424.81;109414;1253;65785;-55
2024/02/18 04:59:15;;;;;;;;;;;;;;;-2.46;100.00;101427.86;109185;1254;72741;-54
2024/02/18 05:01:47;;;;;;;;;;;;;;;-2.46;100.00;101430.23;109184;1253;59708;-54
2024/02/18 05:04:15;;;;;;;;;;;;;;;-2.45;100.00;101427.61;109219;1253;59726;-54
2024/02/18 05:06:48;;;;;;;;;;;;;;;-2.42;100.00;101429.04;109391;1253;75537;-60
2024/02/18 05:09:16;;;;;;;;;;;;;;;-2.41;100.00;101429.33;109242;1254;67040;-55
2024/02/18 05:11:44;;;;;;;;;;;;;;;-2.39;100.00;101425.83;109242;1253;72767;-54
2024/02/18 05:14:11;;;;;;;;;;;;;;;-2.37;100.00;101423.68;109210;1253;59758;-54
2024/02/18 05:16:38;;;;;;;;;;;;;;;-2.35;100.00;101423.26;109226;1254;59776;-60
2024/02/18 05:19:06;;;;;;;;;;;;;;;-2.33;100.00;101429.81;109203;1254;75509;-54
2024/02/18 05:21:33;;;;;;;;;;;;;;;-2.33;100.00;101433.35;109213;1258;65639;-55
2024/02/18 05:24:01;;;;;;;;;;;;;;;-2.30;100.00;101435.26;109218;1254;72733;-54
2024/02/18 05:26:29;;;;;;;;;;;;;;;-2.27;100.00;101429.52;109177;1254;59794;-54
2024/02/18 05:28:56;;;;;;;;;;;;;;;-2.25;100.00;101434.00;109216;1253;59726;-60
2024/02/18 05:31:24;;;;;;;;;;;;;;;-2.23;100.00;101433.09;109223;1254;75559;-55
2024/02/18 05:33:52;;;;;;;;;;;;;;;-2.24;100.00;101442.51;109242;1253;66933;-56
2024/02/18 05:36:20;;;;;;;;;;;;;;;-2.22;100.00;101446.80;109201;1253;72762;-55
2024/02/18 05:38:48;;;;;;;;;;;;;;;-2.19;100.00;101449.43;109399;1253;60434;-55
2024/02/18 05:41:16;;;;;;;;;;;;;;;-2.18;100.00;101443.59;109211;1253;60307;-55
2024/02/18 05:43:43;;;;;;;;;;;;;;;-2.16;100.00;101436.99;109243;1253;75485;-55
2024/02/18 05:46:11;;;;;;;;;;;;;;;-2.13;100.00;101433.48;109224;1254;66984;-55
2024/02/18 05:48:39;;;;;;;;;;;;;;;-2.10;100.00;101426.19;109194;1254;72722;-55
2024/02/18 05:51:07;;;;;;;;;;;;;;;-2.09;100.00;101422.04;109198;1253;59789;-59
2024/02/18 05:53:34;;;;;;;;;;;;;;;-2.09;100.00;101420.84;109224;1253;60356;-54
2024/02/18 05:56:02;;;;;;;;;;;;;;;-2.08;100.00;101420.45;109232;1253;75786;-54
2024/02/18 05:58:29;;;;;;;;;;;;;;;-2.08;100.00;101415.71;109232;1254;66803;-53
2024/02/18 06:00:57;;;;;;;;;;;;;;;-2.08;100.00;101415.16;109228;1254;72749;-54
2024/02/18 06:03:24;;;;;;;;;;;;;;;-2.06;100.00;101424.61;109187;1254;60336;-55
2024/02/18 06:05:52;;;;;;;;;;;;;;;-2.05;100.00;101431.19;109239;1253;60501;-54
2024/02/18 06:08:20;;;;;;;;;;;;;;;-2.03;100.00;101430.77;109229;1253;74851;-55
2024/02/18 06:10:48;;;;;;;;;;;;;;;-2.03;100.00;101433.52;109252;1254;65608;-54
2024/02/18 06:13:16;;;;;;;;;;;;;;;-2.04;100.00;101427.92;109229;1255;72841;-57
2024/02/18 06:15:44;;;;;;;;;;;;;;;-2.03;100.00;101435.52;109225;1255;60507;-55
2024/02/18 06:18:12;;;;;;;;;;;;;;;-2.01;100.00;101435.45;109215;1253;59903;-54
2024/02/18 06:20:40;;;;;;;;;;;;;;;-2.00;100.00;101433.35;109257;1253;74269;-53
2024/02/18 06:23:07;;;;;;;;;;;;;;;-1.99;100.00;101437.04;109250;1254;66055;-54
2024/02/18 06:25:36;;;;;;;;;;;;;;;-1.97;100.00;101438.64;109214;1257;71438;-55
2024/02/18 06:28:07;;;;;;;;;;;;;;;-1.94;100.00;101431.88;109267;1254;60620;-54
2024/02/18 06:30:35;;;;;;;;;;;;;;;-1.92;100.00;101422.58;109239;1254;59930;-53
2024/02/18 06:33:03;;;;;;;;;;;;;;;-1.87;100.00;101424.06;109236;1253;75560;-53
2024/02/18 06:35:31;;;;;;;;;;;;;;;-1.84;100.00;101425.77;109275;1254;67528;-60
2024/02/18 06:37:59;;;;;;;;;;;;;;;-1.83;100.00;101423.98;109212;1253;71308;-54
2024/02/18 06:40:26;;;;;;;;;;;;;;;-1.84;100.00;101422.17;109213;1253;59781;-54
2024/02/18 06:42:54;;;;;;;;;;;;;;;-1.84;100.00;101416.38;109212;1255;59872;-54
2024/02/18 06:45:21;;;;;;;;;;;;;;;-1.85;100.00;101407.39;109251;1253;75710;-54
2024/02/18 06:47:49;;;;;;;;;;;;;;;-1.86;100.00;101400.48;109161;1254;67833;-54
2024/02/18 06:50:17;;;;;;;;;;;;;;;-1.86;100.00;101394.18;109227;1254;72823;-53
2024/02/18 06:52:44;;;;;;;;;;;;;;;-1.82;100.00;101391.09;109226;1253;59822;-55
2024/02/18 06:55:12;;;;;;;;;;;;;;;-1.73;100.00;101398.48;109234;1253;60011;-54
2024/02/18 06:57:42;;;;;;;;;;;;;;;-1.60;100.00;101405.15;109251;1254;74373;-58
2024/02/18 07:00:10;;;;;;;;;;;;;;;-1.50;100.00;101394.06;109258;1253;67970;-54
2024/02/18 07:02:38;;;;;;;;;;;;;;;-1.43;100.00;101386.08;109217;1253;72756;-56
2024/02/18 07:05:05;;;;;;;;;;;;;;;-1.36;100.00;101380.94;109225;1253;59747;-55
2024/02/18 07:07:33;;;;;;;;;;;;;;;-1.29;100.00;101380.06;109251;1254;59973;-55
2024/02/18 07:10:01;;;;;;;;;;;;;;;-1.24;100.00;101381.83;109214;1254;76069;-56
2024/02/18 07:12:32;;;;;;;;;;;;;;;-1.20;100.00;101372.98;109323;1254;67541;-55
2024/02/18 07:14:59;;;;;;;;;;;;;;;-1.17;100.00;101376.92;109263;1254;73027;-55
2024/02/18 07:17:28;;;;;;;;;;;;;;;-1.16;100.00;101380.94;109249;1252;60077;-54
2024/02/18 07:19:56;;;;;;;;;;;;;;;-1.18;100.00;101381.55;109355;1254;59738;-54
2024/02/18 07:22:25;;;;;;;;;;;;;;;-1.16;100.00;101388.13;109259;1254;75522;-54
2024/02/18 07:24:53;;;;;;;;;;;;;;;-1.17;100.00;101384.08;109267;1254;66104;-53
2024/02/18 07:27:20;;;;;;;;;;;;;;;-1.20;100.00;101381.13;109225;1254;72689;-53
2024/02/18 07:29:48;;;;;;;;;;;;;;;-1.21;100.00;101385.10;109223;1253;59755;-58
2024/02/18 07:32:15;;;;;;;;;;;;;;;-1.22;100.00;101381.05;109257;1253;60183;-54
2024/02/18 07:34:43;;;;;;;;;;;;;;;-1.25;100.00;101387.36;109254;1253;75611;-53
2024/02/18 07:37:11;;;;;;;;;;;;;;;-1.24;100.00;101387.13;109269;1255;65811;-54
2024/02/18 07:39:38;;;;;;;;;;;;;;;-1.20;100.00;101385.05;109235;1253;70469;-53
2024/02/18 07:42:06;;;;;;;;;;;;;;;-1.14;100.00;101383.57;109191;1254;60944;-60
2024/02/18 07:44:34;;;;;;;;;;;;;;;-1.09;100.00;101378.02;109272;1253;59779;-55
2024/02/18 07:47:01;;;;;;;;;;;;;;;-1.05;100.00;101370.46;109290;1253;74069;-56
2024/02/18 07:49:29;;;;;;;;;;;;;;;-1.02;100.00;101373.34;109335;1253;67432;-55
2024/02/18 07:51:56;;;;;;;;;;;;;;;-0.98;100.00;101369.58;109358;1253;71427;-56
2024/02/18 07:54:24;;;;;;;;;;;;;;;-0.94;100.00;101371.57;109284;1254;60372;-56
2024/02/18 07:56:51;;;;;;;;;;;;;;;-0.94;100.00;101373.81;109303;1253;59793;-55
2024/02/18 07:59:21;;;;;;;;;;;;;;;-0.91;100.00;101375.01;109329;1253;75551;-55
2024/02/18 08:01:49;;;;;;;;;;;;;;;-0.88;100.00;101369.52;109269;1253;64967;-55
2024/02/18 08:04:17;;;;;;;;;;;;;;;-0.87;100.00;101370.67;109284;1253;73179;-54
2024/02/18 08:06:44;;;;;;;;;;;;;;;-0.90;100.00;101366.09;109272;1253;59967;-55
2024/02/18 08:09:15;;;;;;;;;;;;;;;-0.92;100.00;101362.25;109321;1253;59846;-54
2024/02/18 08:11:44;;;;;;;;;;;;;;;-0.93;100.00;101360.11;109241;1253;74243;-54
2024/02/18 08:14:12;;;;;;;;;;;;;;;-0.88;100.00;101362.72;109318;1253;67084;-54
2024/02/18 08:16:40;;;;;;;;;;;;;;;-0.81;100.00;101366.11;109284;1252;72731;-60
2024/02/18 08:19:07;;;;;;;;;;;;;;;-0.77;100.00;101363.15;109308;1253;59793;-54
2024/02/18 08:21:35;;;;;;;;;;;;;;;-0.78;100.00;101367.27;109305;1254;60128;-54
2024/02/18 08:24:02;;;;;;;;;;;;;;;-0.78;100.00;101368.52;109345;1252;75576;-54
2024/02/18 08:26:30;;;;;;;;;;;;;;;-0.75;100.00;101362.50;109373;1253;66835;-60
2024/02/18 08:28:57;;;;;;;;;;;;;;;-0.71;100.00;101357.36;109309;1253;71435;-54
2024/02/18 08:31:25;;;;;;;;;;;;;;;-0.66;100.00;101349.97;109304;1254;59708;-54
2024/02/18 08:33:52;;;;;;;;;;;;;;;-0.60;100.00;101348.40;109329;1252;59891;-54
2024/02/18 08:36:20;;;;;;;;;;;;;;;-0.55;100.00;101346.60;109327;1253;74714;-54
2024/02/18 08:38:49;;;;;;;;;;;;;;;-0.51;100.00;101348.93;109263;1253;66959;-53
2024/02/18 08:41:17;;;;;;;;;;;;;;;-0.47;100.00;101347.20;109296;1253;72732;-55
2024/02/18 08:43:45;;;;;;;;;;;;;;;-0.45;100.00;101345.19;109275;1253;59769;-53
2024/02/18 08:46:13;;;;;;;;;;;;;;;-0.40;100.00;101342.89;109335;1252;59868;-53
2024/02/18 08:48:40;;;;;;;;;;;;;;;-0.38;100.00;101340.52;109271;1252;74277;-60
2024/02/18 08:51:08;;;;;;;;;;;;;;;-0.34;100.00;101329.73;109329;1252;67871;-53
2024/02/18 08:53:40;;;;;;;;;;;;;;;-0.30;100.00;101328.79;109325;1252;71488;-56
2024/02/18 08:56:09;;;;;;;;;;;;;;;-0.26;100.00;101333.55;109294;1252;60292;-54
2024/02/18 08:58:37;;;;;;;;;;;;;;;-0.25;100.00;101333.31;109226;1253;59892;-60
2024/02/18 09:01:04;;;;;;;;;;;;;;;-0.25;100.00;101331.74;109326;1253;75285;-54
2024/02/18 09:03:32;;;;;;;;;;;;;;;-0.23;100.00;101324.85;109338;1252;67104;-54
2024/02/18 09:06:00;;;;;;;;;;;;;;;-0.27;100.00;101319.92;109385;1253;71450;-53
2024/02/18 09:08:28;;;;;;;;;;;;;;;-0.32;100.00;101321.06;109328;1253;60196;-54
2024/02/18 09:10:55;;;;;;;;;;;;;;;-0.36;100.00;101326.77;109287;1252;59763;-54
2024/02/18 09:13:23;;;;;;;;;;;;;;;-0.41;100.00;101322.57;109314;1253;75583;-54
2024/02/18 09:15:51;;;;;;;;;;;;;;;-0.46;100.00;101319.44;109493;1253;65984;-53
2024/02/18 09:18:19;;;;;;;;;;;;;;;-0.51;100.00;101316.69;109302;1252;71469;-54
2024/02/18 09:20:46;;;;;;;;;;;;;;;-0.53;100.00;101310.25;109320;1253;60289;-59
2024/02/18 09:23:15;;;;;;;;;;;;;;;-0.53;100.00;101299.21;109272;1253;60141;-54
2024/02/18 09:25:43;;;;;;;;;;;;;;;-0.55;100.00;101300.17;109338;1253;75532;-54
2024/02/18 09:28:11;;;;;;;;;;;;;;;-0.53;100.00;101298.33;109326;1253;67101;-53
2024/02/18 09:30:38;;;;;;;;;;;;;;;-0.47;100.00;101293.56;109306;1252;74882;-54
2024/02/18 09:33:06;;;;;;;;;;;;;;;-0.43;100.00;101291.27;109267;1253;59720;-54
2024/02/18 09:35:34;;;;;;;;;;;;;;;-0.38;100.00;101285.55;109352;1253;60245;-53
2024/02/18 09:38:04;;;;;;;;;;;;;;;-0.32;100.00;101285.73;109309;1252;74492;-54
2024/02/18 09:40:31;;;;;;;;;;;;;;;-0.26;100.00;101280.41;109327;1253;67118;-55
2024/02/18 09:42:59;;;;;;;;;;;;;;;-0.21;100.00;101281.85;109274;1253;72821;-55
2024/02/18 09:45:27;;;;;;;;;;;;;;;-0.20;100.00;101280.44;109319;1253;59810;-54
2024/02/18 09:47:55;;;;;;;;;;;;;;;-0.23;100.00;101277.53;109330;1252;59684;-54
2024/02/18 09:50:22;;;;;;;;;;;;;;;-0.26;100.00;101268.63;109336;1252;75546;-53
2024/02/18 09:52:50;;;;;;;;;;;;;;;-0.23;100.00;101264.90;109257;1253;67613;-58
2024/02/18 09:55:17;;;;;;;;;;;;;;;-0.18;100.00;101265.77;109344;1253;72694;-54
2024/02/18 09:57:45;;;;;;;;;;;;;;;-0.12;100.00;101265.74;109300;1253;60253;-54
2024/02/18 10:00:13;;;;;;;;;;;;;;;-0.05;100.00;101260.55;109300;1252;60100;-55
2024/02/18 10:02:41;;;;;;;;;;;;;;;0.01;100.00;101257.35;109327;1253;75461;-54
2024/02/18 10:05:10;;;;;;;;;;;;;;;0.02;100.00;101255.75;109249;1253;66725;-54
2024/02/18 10:07:38;;;;;;;;;;;;;;;0.00;100.00;101250.88;109338;1252;73048;-55
2024/02/18 10:10:07;;;;;;;;;;;;;;;-0.02;100.00;101251.85;109307;1253;59799;-56
2024/02/18 10:12:35;;;;;;;;;;;;;;;0.01;100.00;101253.42;109319;1254;59765;-55
2024/02/18 10:15:03;;;;;;;;;;;;;;;0.04;100.00;101254.56;109298;1253;74251;-56
2024/02/18 10:17:32;;;;;;;;;;;;;;;0.04;100.00;101253.39;109288;1252;66987;-55
2024/02/18 10:20:00;;;;;;;;;;;;;;;0.06;100.00;101251.88;109318;1253;71801;-55
2024/02/18 10:22:29;;;;;;;;;;;;;;;0.10;100.00;101251.29;109281;1253;63464;-55
2024/02/18 10:24:57;;;;;;;;;;;;;;;0.12;100.00;101251.16;109347;1252;59851;-55
2024/02/18 10:27:24;;;;;;;;;;;;;;;0.14;100.00;101250.36;109272;1253;76083;-56
2024/02/18 10:29:52;;;;;;;;;;;;;;;0.12;100.00;101252.55;109343;1253;65719;-55
2024/02/18 10:32:20;;;;;;;;;;;;;;;0.08;100.00;101251.75;109322;1252;70708;-56
2024/02/18 10:34:47;;;;;;;;;;;;;;;0.06;100.00;101250.67;109298;1253;59852;-55
2024/02/18 10:37:27;;;;;;;;;;;;;;;0.08;100.00;101248.02;109276;1253;59976;-56
2024/02/18 10:39:56;;;;;;;;;;;;;;;0.15;100.00;101249.13;109225;1252;76943;-56
2024/02/18 10:42:24;;;;;;;;;;;;;;;0.22;100.00;101244.45;109323;1253;67016;-52
2024/02/18 10:44:52;;;;;;;;;;;;;;;0.27;100.00;101240.73;109227;1252;72820;-53
2024/02/18 10:47:19;;;;;;;;;;;;;;;0.34;100.00;101242.88;109274;1252;63066;-58
2024/02/18 10:49:51;;;;;;;;;;;;;;;0.42;100.00;101245.49;109337;1252;59919;-55
2024/02/18 10:52:34;;;;;;;;;;;;;;;0.46;100.00;101244.70;109302;1252;74265;-55
2024/02/18 10:55:06;;;;;;;;;;;;;;;0.52;100.00;101246.06;109331;1253;66118;-59
2024/02/18 10:57:34;;;;;;;;;;;;;;;0.56;100.00;101240.67;109361;1252;73458;-56
2024/02/18 11:00:05;;;;;;;;;;;;;;;0.57;100.00;101239.96;109200;1252;60951;-56
2024/02/18 11:02:42;;;;;;;;;;;;;;;0.54;100.00;101240.30;109321;1252;61921;-56
2024/02/18 11:05:10;;;;;;;;;;;;;;;0.54;100.00;101241.67;109281;1253;77437;-56
2024/02/18 11:07:38;;;;;;;;;;;;;;;0.51;100.00;101241.83;109376;1253;66220;-56
2024/02/18 11:10:06;;;;;;;;;;;;;;;0.45;100.00;101241.82;109346;1252;74400;-55
2024/02/18 11:12:34;;;;;;;;;;;;;;;0.39;100.00;101242.75;109211;1252;63074;-55
2024/02/18 11:15:02;;;;;;;;;;;;;;;0.33;100.00;101240.71;109283;1252;61926;-58
2024/02/18 11:17:30;;;;;;;;;;;;;;;0.29;100.00;101244.19;109361;1253;74598;-55
2024/02/18 11:19:57;;;;;;;;;;;;;;;0.29;100.00;101238.76;109232;1253;68807;-54
2024/02/18 11:22:25;;;;;;;;;;;;;;;0.29;100.00;101242.33;109306;1253;71527;-55
2024/02/18 11:24:52;;;;;;;;;;;;;;;0.30;100.00;101242.44;109113;1252;288240;-55
2024/02/18 11:27:20;;;;;;;;;;;;;;;0.29;100.00;101240.58;109272;1252;59793;-55
2024/02/18 11:29:51;;;;;;;;;;;;;;;0.29;100.00;101240.48;109372;1253;77543;-54
2024/02/18 11:32:19;;;;;;;;;;;;;;;0.24;100.00;101237.47;109300;1252;65858;-54
2024/02/18 11:34:46;;;;;;;;;;;;;;;0.19;100.00;101238.48;109310;1252;74800;-54
2024/02/18 11:37:30;;;;;;;;;;;;;;;0.17;100.00;101234.18;109246;1252;60168;-56
2024/02/18 11:39:58;;;;;;;;;;;;;;;0.15;100.00;101236.99;109383;1253;60369;-55
2024/02/18 11:42:26;;;;;;;;;;;;;;;0.14;100.00;101232.42;109322;1252;75612;-54
2024/02/18 11:45:20;;;;;;;;;;;;;;;0.11;100.00;101235.84;109305;1253;67092;-61
2024/02/18 11:47:49;;;;;;;;;;;;;;;0.07;100.00;101237.30;109303;1252;73618;-55
2024/02/18 11:50:19;;;;;;;;;;;;;;;0.07;100.00;101235.23;109310;1252;60998;-55
2024/02/18 11:52:47;;;;;;;;;;;;;;;0.07;100.00;101233.87;109349;1253;61422;-55
2024/02/18 11:55:15;;;;;;;;;;;;;;;0.08;100.00;101228.40;109354;1253;75563;-55
2024/02/18 11:57:43;;;;;;;;;;;;;;;0.10;100.00;101226.04;109312;1252;69758;-55
2024/02/18 12:00:16;;;;;;;;;;;;;;;0.07;100.00;101226.21;109353;1253;72745;-55
2024/02/18 12:02:49;;;;;;;;;;;;;;;0.05;100.00;101225.77;109269;1253;59811;-59
2024/02/18 12:05:17;;;;;;;;;;;;;;;0.03;100.00;101227.45;109357;1252;60366;-56
2024/02/18 12:07:45;;;;;;;;;;;;;;;0.01;100.00;101227.61;109359;1252;74233;-55
2024/02/18 12:10:13;;;;;;;;;;;;;;;-0.03;100.00;101222.36;109344;1253;68131;-54
2024/02/18 12:12:41;;;;;;;;;;;;;;;-0.06;100.00;101222.36;109304;1254;72717;-60
2024/02/18 12:15:09;;;;;;;;;;;;;;;-0.07;100.00;101216.63;109316;1253;60369;-56
2024/02/18 12:17:36;;;;;;;;;;;;;;;-0.08;100.00;101216.83;109364;1252;60289;-53
2024/02/18 12:20:06;;;;;;;;;;;;;;;-0.10;100.00;101214.93;109333;1252;74175;-56
2024/02/18 12:22:34;;;;;;;;;;;;;;;-0.14;100.00;101212.23;109268;1253;65645;-58